sensor_id;sensor_type;location;lat;lon;timestamp;P1;durP1;ratioP1;P2;durP2;ratioP2
15183;SDS011;7693;49.266;7.104;2023-03-01T06:32:43;24.93;;;16.47;;
15183;SDS011;7693;49.266;7.104;2023-03-01T06:35:10;24.93;;;16.20;;
15183;SDS011;7693;49.266;7.104;2023-03-01T06:37:36;28.00;;;18.37;;
15183;SDS011;7693;49.266;7.104;2023-03-01T06:40:03;30.47;;;16.77;;
15183;SDS011;7693;49.266;7.104;2023-03-01T06:42:33;28.97;;;17.17;;
15183;SDS011;7693;49.266;7.104;2023-03-01T06:44:59;27.10;;;17.50;;
15183;SDS011;7693;49.266;7.104;2023-03-01T06:47:25;28.23;;;16.80;;
15183;SDS011;7693;49.266;7.104;2023-03-01T06:49:50;28.63;;;17.73;;
15183;SDS011;7693;49.266;7.104;2023-03-01T06:52:16;26.50;;;17.10;;
15183;SDS011;7693;49.266;7.104;2023-03-01T06:54:41;22.93;;;16.33;;
15183;SDS011;7693;49.266;7.104;2023-03-01T06:57:07;25.03;;;17.37;;
15183;SDS011;7693;49.266;7.104;2023-03-01T06:59:32;24.03;;;16.60;;
15183;SDS011;7693;49.266;7.104;2023-03-01T07:01:58;21.53;;;16.37;;
15183;SDS011;7693;49.266;7.104;2023-03-01T07:04:24;23.77;;;17.23;;
15183;SDS011;7693;49.266;7.104;2023-03-01T07:06:49;25.67;;;17.77;;
15183;SDS011;7693;49.266;7.104;2023-03-01T07:09:20;27.57;;;17.80;;
15183;SDS011;7693;49.266;7.104;2023-03-01T07:11:47;26.63;;;17.53;;
15183;SDS011;7693;49.266;7.104;2023-03-01T07:14:12;20.80;;;16.80;;
15183;SDS011;7693;49.266;7.104;2023-03-01T07:16:38;22.60;;;16.90;;
15183;SDS011;7693;49.266;7.104;2023-03-01T07:19:03;22.23;;;16.07;;
15183;SDS011;7693;49.266;7.104;2023-03-01T07:21:30;24.80;;;16.93;;
15183;SDS011;7693;49.266;7.104;2023-03-01T07:23:56;25.97;;;17.30;;
15183;SDS011;7693;49.266;7.104;2023-03-01T07:26:21;22.93;;;17.10;;
15183;SDS011;7693;49.266;7.104;2023-03-01T07:28:47;24.73;;;17.07;;
15183;SDS011;7693;49.266;7.104;2023-03-01T07:31:12;30.73;;;19.53;;
15183;SDS011;7693;49.266;7.104;2023-03-01T07:33:38;23.27;;;17.37;;
15183;SDS011;7693;49.266;7.104;2023-03-01T07:36:04;24.50;;;17.43;;
15183;SDS011;7693;49.266;7.104;2023-03-01T07:38:30;27.43;;;17.60;;
15183;SDS011;7693;49.266;7.104;2023-03-01T07:41:00;25.30;;;17.23;;
15183;SDS011;7693;49.266;7.104;2023-03-01T07:43:28;23.77;;;17.60;;
15183;SDS011;7693;49.266;7.104;2023-03-01T07:45:54;25.33;;;17.13;;
15183;SDS011;7693;49.266;7.104;2023-03-01T07:48:23;23.50;;;16.30;;
15183;SDS011;7693;49.266;7.104;2023-03-01T07:50:49;26.60;;;16.70;;
15183;SDS011;7693;49.266;7.104;2023-03-01T07:53:14;23.33;;;17.57;;
15183;SDS011;7693;49.266;7.104;2023-03-01T07:55:40;27.97;;;17.80;;
15183;SDS011;7693;49.266;7.104;2023-03-01T07:58:05;22.77;;;17.30;;
15183;SDS011;7693;49.266;7.104;2023-03-01T08:00:31;22.00;;;16.27;;
15183;SDS011;7693;49.266;7.104;2023-03-01T08:02:58;23.20;;;17.30;;
15183;SDS011;7693;49.266;7.104;2023-03-01T08:05:25;23.03;;;17.07;;
15183;SDS011;7693;49.266;7.104;2023-03-01T08:07:51;26.30;;;17.53;;
15183;SDS011;7693;49.266;7.104;2023-03-01T08:10:17;24.57;;;16.03;;
15183;SDS011;7693;49.266;7.104;2023-03-01T08:12:43;23.23;;;17.47;;
15183;SDS011;7693;49.266;7.104;2023-03-01T08:15:08;25.30;;;16.63;;
15183;SDS011;7693;49.266;7.104;2023-03-01T08:17:34;25.77;;;16.93;;
15183;SDS011;7693;49.266;7.104;2023-03-01T08:20:00;25.33;;;17.63;;
15183;SDS011;7693;49.266;7.104;2023-03-01T08:22:25;23.50;;;17.03;;
15183;SDS011;7693;49.266;7.104;2023-03-01T08:24:51;24.20;;;17.40;;
15183;SDS011;7693;49.266;7.104;2023-03-01T08:27:17;23.47;;;17.37;;
15183;SDS011;7693;49.266;7.104;2023-03-01T08:29:42;24.83;;;17.80;;
15183;SDS011;7693;49.266;7.104;2023-03-01T08:32:08;21.57;;;17.17;;
15183;SDS011;7693;49.266;7.104;2023-03-01T08:34:33;22.03;;;15.67;;
15183;SDS011;7693;49.266;7.104;2023-03-01T08:37:00;24.03;;;17.17;;
15183;SDS011;7693;49.266;7.104;2023-03-01T08:39:27;22.70;;;16.67;;
15183;SDS011;7693;49.266;7.104;2023-03-01T08:41:52;22.83;;;17.63;;
15183;SDS011;7693;49.266;7.104;2023-03-01T08:44:18;22.90;;;16.97;;
15183;SDS011;7693;49.266;7.104;2023-03-01T08:46:45;21.47;;;16.03;;
15183;SDS011;7693;49.266;7.104;2023-03-01T08:49:15;22.97;;;17.13;;
15183;SDS011;7693;49.266;7.104;2023-03-01T08:51:42;22.00;;;17.23;;
15183;SDS011;7693;49.266;7.104;2023-03-01T08:54:16;23.43;;;17.27;;
15183;SDS011;7693;49.266;7.104;2023-03-01T08:56:43;28.07;;;17.07;;
15183;SDS011;7693;49.266;7.104;2023-03-01T08:59:13;23.13;;;18.00;;
15183;SDS011;7693;49.266;7.104;2023-03-01T09:01:40;25.70;;;17.67;;
15183;SDS011;7693;49.266;7.104;2023-03-01T09:04:08;30.13;;;17.50;;
15183;SDS011;7693;49.266;7.104;2023-03-01T09:06:34;29.20;;;17.90;;
15183;SDS011;7693;49.266;7.104;2023-03-01T09:09:00;24.63;;;17.77;;
15183;SDS011;7693;49.266;7.104;2023-03-01T09:11:27;24.20;;;17.80;;
15183;SDS011;7693;49.266;7.104;2023-03-01T09:13:53;26.13;;;17.70;;
15183;SDS011;7693;49.266;7.104;2023-03-01T09:16:19;27.17;;;17.27;;
15183;SDS011;7693;49.266;7.104;2023-03-01T09:18:50;24.43;;;17.97;;
15183;SDS011;7693;49.266;7.104;2023-03-01T09:21:17;21.77;;;17.13;;
15183;SDS011;7693;49.266;7.104;2023-03-01T09:23:46;23.97;;;17.40;;
15183;SDS011;7693;49.266;7.104;2023-03-01T09:26:13;24.07;;;17.63;;
15183;SDS011;7693;49.266;7.104;2023-03-01T09:28:44;24.07;;;16.93;;
15183;SDS011;7693;49.266;7.104;2023-03-01T09:31:11;26.80;;;17.27;;
15183;SDS011;7693;49.266;7.104;2023-03-01T09:33:38;22.17;;;17.17;;
15183;SDS011;7693;49.266;7.104;2023-03-01T09:36:05;23.00;;;17.33;;
15183;SDS011;7693;49.266;7.104;2023-03-01T09:38:35;22.77;;;18.10;;
15183;SDS011;7693;49.266;7.104;2023-03-01T09:41:00;22.47;;;16.97;;
15183;SDS011;7693;49.266;7.104;2023-03-01T09:43:46;22.83;;;16.57;;
15183;SDS011;7693;49.266;7.104;2023-03-01T09:46:18;21.87;;;16.23;;
15183;SDS011;7693;49.266;7.104;2023-03-01T09:49:01;22.70;;;17.63;;
15183;SDS011;7693;49.266;7.104;2023-03-01T09:51:35;27.77;;;16.83;;
15183;SDS011;7693;49.266;7.104;2023-03-01T09:54:02;25.17;;;17.60;;
15183;SDS011;7693;49.266;7.104;2023-03-01T09:56:33;25.17;;;18.43;;
15183;SDS011;7693;49.266;7.104;2023-03-01T10:04:51;24.27;;;17.57;;
15183;SDS011;7693;49.266;7.104;2023-03-01T10:07:44;20.73;;;17.10;;
15183;SDS011;7693;49.266;7.104;2023-03-01T10:10:32;23.23;;;17.37;;
15183;SDS011;7693;49.266;7.104;2023-03-01T10:13:13;22.50;;;17.00;;
15183;SDS011;7693;49.266;7.104;2023-03-01T10:15:54;20.67;;;16.80;;
15183;SDS011;7693;49.266;7.104;2023-03-01T10:18:47;25.33;;;17.53;;
15183;SDS011;7693;49.266;7.104;2023-03-01T10:21:19;23.13;;;17.40;;
15183;SDS011;7693;49.266;7.104;2023-03-01T10:23:46;22.63;;;17.40;;
15183;SDS011;7693;49.266;7.104;2023-03-01T10:29:54;25.00;;;18.00;;
15183;SDS011;7693;49.266;7.104;2023-03-01T10:32:23;20.47;;;16.37;;
15183;SDS011;7693;49.266;7.104;2023-03-01T10:34:49;21.00;;;16.60;;
15183;SDS011;7693;49.266;7.104;2023-03-01T10:37:16;23.37;;;17.17;;
15183;SDS011;7693;49.266;7.104;2023-03-01T10:42:34;20.23;;;17.00;;
15183;SDS011;7693;49.266;7.104;2023-03-01T10:50:45;24.23;;;16.47;;
15183;SDS011;7693;49.266;7.104;2023-03-01T10:53:28;22.50;;;17.13;;
15183;SDS011;7693;49.266;7.104;2023-03-01T10:55:58;23.23;;;18.27;;
15183;SDS011;7693;49.266;7.104;2023-03-01T10:58:31;21.03;;;17.27;;
15183;SDS011;7693;49.266;7.104;2023-03-01T11:01:33;24.13;;;17.63;;
15183;SDS011;7693;49.266;7.104;2023-03-01T13:33:54;20.67;;;16.87;;
15183;SDS011;7693;49.266;7.104;2023-03-01T13:36:45;21.50;;;17.10;;
15183;SDS011;7693;49.266;7.104;2023-03-01T13:41:49;21.57;;;16.10;;
15183;SDS011;7693;49.266;7.104;2023-03-01T13:46:58;19.67;;;16.80;;
15183;SDS011;7693;49.266;7.104;2023-03-01T13:49:31;22.43;;;16.93;;
15183;SDS011;7693;49.266;7.104;2023-03-01T13:52:05;20.33;;;17.87;;
15183;SDS011;7693;49.266;7.104;2023-03-01T13:54:39;26.13;;;17.20;;
15183;SDS011;7693;49.266;7.104;2023-03-01T13:57:04;21.80;;;17.17;;
15183;SDS011;7693;49.266;7.104;2023-03-01T13:59:30;19.97;;;17.13;;
15183;SDS011;7693;49.266;7.104;2023-03-01T14:01:56;22.53;;;16.77;;
15183;SDS011;7693;49.266;7.104;2023-03-01T14:04:26;21.00;;;17.40;;
15183;SDS011;7693;49.266;7.104;2023-03-01T14:07:09;17.90;;;15.90;;
15183;SDS011;7693;49.266;7.104;2023-03-01T14:09:35;19.97;;;16.23;;
15183;SDS011;7693;49.266;7.104;2023-03-01T14:17:59;21.20;;;17.85;;
15183;SDS011;7693;49.266;7.104;2023-03-01T14:20:33;23.83;;;17.37;;
15183;SDS011;7693;49.266;7.104;2023-03-01T14:23:17;20.30;;;16.90;;
15183;SDS011;7693;49.266;7.104;2023-03-01T14:25:47;23.20;;;17.33;;
15183;SDS011;7693;49.266;7.104;2023-03-01T14:30:43;19.33;;;16.13;;
15183;SDS011;7693;49.266;7.104;2023-03-01T14:33:23;19.07;;;16.70;;
15183;SDS011;7693;49.266;7.104;2023-03-01T14:38:23;18.87;;;16.37;;
15183;SDS011;7693;49.266;7.104;2023-03-01T14:41:01;20.67;;;17.07;;
15183;SDS011;7693;49.266;7.104;2023-03-01T14:43:33;24.87;;;17.90;;
15183;SDS011;7693;49.266;7.104;2023-03-01T14:45:58;20.33;;;16.40;;
15183;SDS011;7693;49.266;7.104;2023-03-01T14:48:24;19.80;;;17.00;;
15183;SDS011;7693;49.266;7.104;2023-03-01T14:50:53;22.90;;;16.20;;
15183;SDS011;7693;49.266;7.104;2023-03-01T14:53:26;22.67;;;17.37;;
15183;SDS011;7693;49.266;7.104;2023-03-01T14:56:00;23.03;;;17.07;;
15183;SDS011;7693;49.266;7.104;2023-03-01T14:58:31;22.50;;;17.57;;
15183;SDS011;7693;49.266;7.104;2023-03-01T15:00:58;18.17;;;16.27;;
15183;SDS011;7693;49.266;7.104;2023-03-01T15:03:36;19.97;;;17.00;;
15183;SDS011;7693;49.266;7.104;2023-03-01T15:06:06;19.30;;;17.30;;
15183;SDS011;7693;49.266;7.104;2023-03-01T15:08:33;17.93;;;15.67;;
15183;SDS011;7693;49.266;7.104;2023-03-01T15:13:49;19.53;;;16.00;;
15183;SDS011;7693;49.266;7.104;2023-03-01T15:16:20;19.27;;;17.10;;
15183;SDS011;7693;49.266;7.104;2023-03-01T15:18:58;22.77;;;16.80;;
15183;SDS011;7693;49.266;7.104;2023-03-01T15:21:26;21.43;;;16.57;;
15183;SDS011;7693;49.266;7.104;2023-03-01T15:23:56;18.57;;;15.50;;
15183;SDS011;7693;49.266;7.104;2023-03-01T15:26:28;21.30;;;17.17;;
15183;SDS011;7693;49.266;7.104;2023-03-01T15:28:55;20.90;;;15.60;;
15183;SDS011;7693;49.266;7.104;2023-03-01T15:31:27;22.13;;;15.70;;
15183;SDS011;7693;49.266;7.104;2023-03-01T15:36:52;20.00;;;15.67;;
15183;SDS011;7693;49.266;7.104;2023-03-01T15:39:53;17.60;;;15.03;;
15183;SDS011;7693;49.266;7.104;2023-03-01T15:45:19;22.03;;;14.97;;
15183;SDS011;7693;49.266;7.104;2023-03-01T15:47:48;18.70;;;15.37;;
15183;SDS011;7693;49.266;7.104;2023-03-01T15:50:19;18.13;;;14.90;;
15183;SDS011;7693;49.266;7.104;2023-03-01T15:52:47;19.70;;;16.00;;
15183;SDS011;7693;49.266;7.104;2023-03-01T15:57:46;18.77;;;14.17;;
15183;SDS011;7693;49.266;7.104;2023-03-01T16:00:13;16.37;;;13.83;;
15183;SDS011;7693;49.266;7.104;2023-03-01T16:02:40;15.07;;;13.43;;
15183;SDS011;7693;49.266;7.104;2023-03-01T16:05:26;16.23;;;13.97;;
15183;SDS011;7693;49.266;7.104;2023-03-01T16:07:57;17.30;;;13.43;;
15183;SDS011;7693;49.266;7.104;2023-03-01T16:10:22;18.03;;;14.03;;
15183;SDS011;7693;49.266;7.104;2023-03-01T16:12:49;14.80;;;13.23;;
15183;SDS011;7693;49.266;7.104;2023-03-01T16:15:21;16.03;;;13.00;;
15183;SDS011;7693;49.266;7.104;2023-03-01T16:17:54;15.27;;;13.67;;
15183;SDS011;7693;49.266;7.104;2023-03-01T16:20:20;14.60;;;13.10;;
15183;SDS011;7693;49.266;7.104;2023-03-01T16:22:47;14.10;;;12.57;;
15183;SDS011;7693;49.266;7.104;2023-03-01T16:25:13;18.57;;;14.37;;
15183;SDS011;7693;49.266;7.104;2023-03-01T16:27:47;16.73;;;13.10;;
15183;SDS011;7693;49.266;7.104;2023-03-01T16:30:15;16.77;;;13.60;;
15183;SDS011;7693;49.266;7.104;2023-03-01T16:32:43;16.60;;;13.00;;
15183;SDS011;7693;49.266;7.104;2023-03-01T16:35:11;14.53;;;12.47;;
15183;SDS011;7693;49.266;7.104;2023-03-01T16:37:38;17.73;;;13.50;;
15183;SDS011;7693;49.266;7.104;2023-03-01T16:40:05;14.10;;;11.90;;
15183;SDS011;7693;49.266;7.104;2023-03-01T16:42:40;16.57;;;13.03;;
15183;SDS011;7693;49.266;7.104;2023-03-01T16:45:07;14.80;;;13.20;;
15183;SDS011;7693;49.266;7.104;2023-03-01T16:47:33;16.70;;;12.07;;
15183;SDS011;7693;49.266;7.104;2023-03-01T16:49:59;13.47;;;11.37;;
15183;SDS011;7693;49.266;7.104;2023-03-01T16:52:24;13.97;;;12.33;;
15183;SDS011;7693;49.266;7.104;2023-03-01T16:54:50;15.10;;;11.87;;
15183;SDS011;7693;49.266;7.104;2023-03-01T16:57:16;14.90;;;12.60;;
15183;SDS011;7693;49.266;7.104;2023-03-01T16:59:41;15.27;;;12.10;;
15183;SDS011;7693;49.266;7.104;2023-03-01T17:02:10;13.53;;;11.40;;
15183;SDS011;7693;49.266;7.104;2023-03-01T17:04:37;16.47;;;11.83;;
15183;SDS011;7693;49.266;7.104;2023-03-01T17:07:03;18.47;;;13.03;;
15183;SDS011;7693;49.266;7.104;2023-03-01T17:09:29;16.70;;;11.77;;
15183;SDS011;7693;49.266;7.104;2023-03-01T17:11:54;20.10;;;11.83;;
15183;SDS011;7693;49.266;7.104;2023-03-01T17:14:20;17.87;;;12.93;;
15183;SDS011;7693;49.266;7.104;2023-03-01T17:16:46;20.97;;;11.57;;
15183;SDS011;7693;49.266;7.104;2023-03-01T17:19:12;13.90;;;11.47;;
15183;SDS011;7693;49.266;7.104;2023-03-01T17:21:42;15.43;;;11.27;;
15183;SDS011;7693;49.266;7.104;2023-03-01T17:24:08;13.47;;;10.77;;
15183;SDS011;7693;49.266;7.104;2023-03-01T17:26:34;16.70;;;12.03;;
15183;SDS011;7693;49.266;7.104;2023-03-01T17:29:00;15.33;;;11.80;;
15183;SDS011;7693;49.266;7.104;2023-03-01T17:31:26;31.13;;;24.03;;
15183;SDS011;7693;49.266;7.104;2023-03-01T17:33:51;15.77;;;12.13;;
15183;SDS011;7693;49.266;7.104;2023-03-01T17:36:17;13.97;;;11.33;;
15183;SDS011;7693;49.266;7.104;2023-03-01T17:38:43;14.00;;;11.77;;
15183;SDS011;7693;49.266;7.104;2023-03-01T17:41:10;15.43;;;11.87;;
15183;SDS011;7693;49.266;7.104;2023-03-01T17:43:36;19.43;;;15.07;;
15183;SDS011;7693;49.266;7.104;2023-03-01T17:46:02;14.60;;;11.53;;
15183;SDS011;7693;49.266;7.104;2023-03-01T17:48:28;20.63;;;11.93;;
15183;SDS011;7693;49.266;7.104;2023-03-01T17:50:54;12.43;;;11.07;;
15183;SDS011;7693;49.266;7.104;2023-03-01T17:53:20;14.73;;;11.17;;
15183;SDS011;7693;49.266;7.104;2023-03-01T17:55:45;15.77;;;11.37;;
15183;SDS011;7693;49.266;7.104;2023-03-01T17:58:13;12.83;;;10.27;;
15183;SDS011;7693;49.266;7.104;2023-03-01T18:00:39;12.37;;;10.97;;
15183;SDS011;7693;49.266;7.104;2023-03-01T18:03:05;14.77;;;11.17;;
15183;SDS011;7693;49.266;7.104;2023-03-01T18:05:31;12.57;;;10.93;;
15183;SDS011;7693;49.266;7.104;2023-03-01T18:07:59;16.63;;;11.50;;
15183;SDS011;7693;49.266;7.104;2023-03-01T18:10:24;15.07;;;11.37;;
15183;SDS011;7693;49.266;7.104;2023-03-01T18:12:50;13.70;;;11.53;;
15183;SDS011;7693;49.266;7.104;2023-03-01T18:15:16;12.83;;;11.40;;
15183;SDS011;7693;49.266;7.104;2023-03-01T18:17:42;13.40;;;11.20;;
15183;SDS011;7693;49.266;7.104;2023-03-01T18:20:07;16.33;;;11.40;;
15183;SDS011;7693;49.266;7.104;2023-03-01T18:22:34;12.33;;;10.50;;
15183;SDS011;7693;49.266;7.104;2023-03-01T18:24:59;14.07;;;11.00;;
15183;SDS011;7693;49.266;7.104;2023-03-01T18:27:25;18.17;;;11.63;;
15183;SDS011;7693;49.266;7.104;2023-03-01T18:29:51;12.97;;;10.03;;
15183;SDS011;7693;49.266;7.104;2023-03-01T18:32:17;15.03;;;11.47;;
15183;SDS011;7693;49.266;7.104;2023-03-01T18:34:43;15.50;;;11.67;;
15183;SDS011;7693;49.266;7.104;2023-03-01T18:37:09;12.93;;;11.37;;
15183;SDS011;7693;49.266;7.104;2023-03-01T18:39:35;14.23;;;11.60;;
15183;SDS011;7693;49.266;7.104;2023-03-01T18:42:00;14.50;;;11.40;;
15183;SDS011;7693;49.266;7.104;2023-03-01T18:44:27;16.23;;;11.63;;
15183;SDS011;7693;49.266;7.104;2023-03-01T18:46:54;17.23;;;11.67;;
15183;SDS011;7693;49.266;7.104;2023-03-01T18:49:22;12.83;;;10.80;;
15183;SDS011;7693;49.266;7.104;2023-03-01T18:51:48;15.63;;;11.30;;
15183;SDS011;7693;49.266;7.104;2023-03-01T18:54:14;17.60;;;11.17;;
15183;SDS011;7693;49.266;7.104;2023-03-01T18:56:40;16.63;;;12.53;;
15183;SDS011;7693;49.266;7.104;2023-03-01T18:59:06;13.50;;;11.47;;
15183;SDS011;7693;49.266;7.104;2023-03-01T19:01:31;17.73;;;10.90;;
15183;SDS011;7693;49.266;7.104;2023-03-01T19:03:57;14.60;;;11.40;;
15183;SDS011;7693;49.266;7.104;2023-03-01T19:06:24;14.60;;;10.77;;
15183;SDS011;7693;49.266;7.104;2023-03-01T19:08:53;14.93;;;11.27;;
15183;SDS011;7693;49.266;7.104;2023-03-01T19:11:19;17.67;;;11.57;;
15183;SDS011;7693;49.266;7.104;2023-03-01T19:13:46;14.67;;;10.97;;
15183;SDS011;7693;49.266;7.104;2023-03-01T19:16:16;13.87;;;11.43;;
15183;SDS011;7693;49.266;7.104;2023-03-01T19:18:43;15.43;;;11.60;;
15183;SDS011;7693;49.266;7.104;2023-03-01T19:21:18;15.03;;;12.33;;
15183;SDS011;7693;49.266;7.104;2023-03-01T19:23:45;15.30;;;12.20;;
15183;SDS011;7693;49.266;7.104;2023-03-01T19:26:15;13.57;;;11.97;;
15183;SDS011;7693;49.266;7.104;2023-03-01T19:28:43;14.23;;;10.60;;
15183;SDS011;7693;49.266;7.104;2023-03-01T19:31:11;16.50;;;12.23;;
15183;SDS011;7693;49.266;7.104;2023-03-01T19:33:41;13.63;;;11.33;;
15183;SDS011;7693;49.266;7.104;2023-03-01T19:36:07;13.87;;;11.30;;
15183;SDS011;7693;49.266;7.104;2023-03-01T19:38:35;17.33;;;12.23;;
15183;SDS011;7693;49.266;7.104;2023-03-01T19:41:05;13.03;;;11.43;;
15183;SDS011;7693;49.266;7.104;2023-03-01T19:43:33;16.10;;;12.93;;
15183;SDS011;7693;49.266;7.104;2023-03-01T19:45:59;18.00;;;13.30;;
15183;SDS011;7693;49.266;7.104;2023-03-01T19:48:25;23.00;;;13.00;;
15183;SDS011;7693;49.266;7.104;2023-03-01T19:50:51;15.90;;;12.47;;
15183;SDS011;7693;49.266;7.104;2023-03-01T19:53:17;22.07;;;14.13;;
15183;SDS011;7693;49.266;7.104;2023-03-01T19:55:44;20.57;;;14.23;;
15183;SDS011;7693;49.266;7.104;2023-03-01T19:58:10;18.83;;;14.60;;
15183;SDS011;7693;49.266;7.104;2023-03-01T20:00:36;17.57;;;13.53;;
15183;SDS011;7693;49.266;7.104;2023-03-01T20:03:02;22.77;;;15.70;;
15183;SDS011;7693;49.266;7.104;2023-03-01T20:05:31;20.93;;;13.53;;
15183;SDS011;7693;49.266;7.104;2023-03-01T20:07:58;20.23;;;13.83;;
15183;SDS011;7693;49.266;7.104;2023-03-01T20:10:24;18.83;;;13.97;;
15183;SDS011;7693;49.266;7.104;2023-03-01T20:12:50;17.83;;;14.20;;
15183;SDS011;7693;49.266;7.104;2023-03-01T20:15:16;19.50;;;14.83;;
15183;SDS011;7693;49.266;7.104;2023-03-01T20:17:42;18.43;;;13.67;;
15183;SDS011;7693;49.266;7.104;2023-03-01T20:20:08;19.50;;;14.10;;
15183;SDS011;7693;49.266;7.104;2023-03-01T20:22:34;17.93;;;13.33;;
15183;SDS011;7693;49.266;7.104;2023-03-01T20:25:00;18.53;;;13.40;;
15183;SDS011;7693;49.266;7.104;2023-03-01T20:27:25;19.27;;;14.70;;
15183;SDS011;7693;49.266;7.104;2023-03-01T20:29:51;18.30;;;13.20;;
15183;SDS011;7693;49.266;7.104;2023-03-01T20:32:16;24.57;;;14.63;;
15183;SDS011;7693;49.266;7.104;2023-03-01T20:34:42;16.30;;;12.73;;
15183;SDS011;7693;49.266;7.104;2023-03-01T20:37:07;17.97;;;13.47;;
15183;SDS011;7693;49.266;7.104;2023-03-01T20:39:33;15.50;;;12.43;;
15183;SDS011;7693;49.266;7.104;2023-03-01T20:41:59;19.20;;;13.73;;
15183;SDS011;7693;49.266;7.104;2023-03-01T20:44:24;25.13;;;15.03;;
15183;SDS011;7693;49.266;7.104;2023-03-01T20:46:50;21.70;;;13.53;;
15183;SDS011;7693;49.266;7.104;2023-03-01T20:49:15;15.63;;;12.27;;
15183;SDS011;7693;49.266;7.104;2023-03-01T20:51:41;15.13;;;12.10;;
15183;SDS011;7693;49.266;7.104;2023-03-01T20:54:08;18.43;;;13.13;;
15183;SDS011;7693;49.266;7.104;2023-03-01T20:56:34;20.87;;;14.33;;
15183;SDS011;7693;49.266;7.104;2023-03-01T20:59:01;21.03;;;14.00;;
15183;SDS011;7693;49.266;7.104;2023-03-01T21:01:33;16.73;;;12.27;;
15183;SDS011;7693;49.266;7.104;2023-03-01T21:04:00;23.23;;;15.07;;
15183;SDS011;7693;49.266;7.104;2023-03-01T21:06:26;23.47;;;15.67;;
15183;SDS011;7693;49.266;7.104;2023-03-01T21:08:52;21.57;;;15.63;;
15183;SDS011;7693;49.266;7.104;2023-03-01T21:11:18;19.87;;;13.70;;
15183;SDS011;7693;49.266;7.104;2023-03-01T21:13:48;20.97;;;13.30;;
15183;SDS011;7693;49.266;7.104;2023-03-01T21:16:14;17.17;;;12.57;;
15183;SDS011;7693;49.266;7.104;2023-03-01T21:18:40;18.27;;;12.63;;
15183;SDS011;7693;49.266;7.104;2023-03-01T21:21:08;16.87;;;12.43;;
15183;SDS011;7693;49.266;7.104;2023-03-01T21:23:36;19.53;;;13.90;;
15183;SDS011;7693;49.266;7.104;2023-03-01T21:28:33;17.63;;;12.87;;
15183;SDS011;7693;49.266;7.104;2023-03-01T21:31:06;19.60;;;13.40;;
15183;SDS011;7693;49.266;7.104;2023-03-01T21:33:34;18.93;;;13.77;;
15183;SDS011;7693;49.266;7.104;2023-03-01T21:36:01;18.70;;;12.40;;
15183;SDS011;7693;49.266;7.104;2023-03-01T21:38:29;18.60;;;13.47;;
15183;SDS011;7693;49.266;7.104;2023-03-01T21:40:56;18.57;;;13.67;;
15183;SDS011;7693;49.266;7.104;2023-03-01T21:43:22;18.23;;;13.50;;
15183;SDS011;7693;49.266;7.104;2023-03-01T21:45:48;17.97;;;13.03;;
15183;SDS011;7693;49.266;7.104;2023-03-01T21:48:14;21.33;;;13.60;;
15183;SDS011;7693;49.266;7.104;2023-03-01T21:50:39;15.13;;;12.47;;
15183;SDS011;7693;49.266;7.104;2023-03-01T21:53:05;17.17;;;13.20;;
15183;SDS011;7693;49.266;7.104;2023-03-01T21:55:30;18.30;;;12.77;;
15183;SDS011;7693;49.266;7.104;2023-03-01T21:57:58;17.77;;;12.97;;
15183;SDS011;7693;49.266;7.104;2023-03-01T22:00:23;17.13;;;12.67;;
15183;SDS011;7693;49.266;7.104;2023-03-01T22:02:49;18.60;;;13.13;;
15183;SDS011;7693;49.266;7.104;2023-03-01T22:05:14;17.27;;;12.83;;
15183;SDS011;7693;49.266;7.104;2023-03-01T22:07:40;16.20;;;12.83;;
15183;SDS011;7693;49.266;7.104;2023-03-01T22:10:06;16.50;;;13.20;;
15183;SDS011;7693;49.266;7.104;2023-03-01T22:12:32;18.17;;;13.37;;
15183;SDS011;7693;49.266;7.104;2023-03-01T22:14:58;17.37;;;12.83;;
15183;SDS011;7693;49.266;7.104;2023-03-01T22:17:23;17.63;;;13.37;;
15183;SDS011;7693;49.266;7.104;2023-03-01T22:19:49;19.40;;;13.33;;
15183;SDS011;7693;49.266;7.104;2023-03-01T22:22:14;17.70;;;12.83;;
15183;SDS011;7693;49.266;7.104;2023-03-01T22:24:40;16.40;;;12.50;;
15183;SDS011;7693;49.266;7.104;2023-03-01T22:27:05;23.13;;;12.73;;
15183;SDS011;7693;49.266;7.104;2023-03-01T22:29:31;18.73;;;13.53;;
15183;SDS011;7693;49.266;7.104;2023-03-01T22:31:57;15.97;;;12.23;;
15183;SDS011;7693;49.266;7.104;2023-03-01T22:34:23;20.63;;;13.70;;
15183;SDS011;7693;49.266;7.104;2023-03-01T22:36:48;18.30;;;14.10;;
15183;SDS011;7693;49.266;7.104;2023-03-01T22:39:14;16.90;;;13.27;;
15183;SDS011;7693;49.266;7.104;2023-03-01T22:41:43;18.60;;;13.53;;
15183;SDS011;7693;49.266;7.104;2023-03-01T22:44:10;21.30;;;13.37;;
15183;SDS011;7693;49.266;7.104;2023-03-01T22:46:40;18.60;;;13.13;;
15183;SDS011;7693;49.266;7.104;2023-03-01T22:49:07;19.57;;;13.23;;
15183;SDS011;7693;49.266;7.104;2023-03-01T22:51:34;18.87;;;12.97;;
15183;SDS011;7693;49.266;7.104;2023-03-01T22:54:02;17.73;;;13.37;;
15183;SDS011;7693;49.266;7.104;2023-03-01T22:56:29;17.80;;;13.30;;
15183;SDS011;7693;49.266;7.104;2023-03-01T22:58:57;19.87;;;13.10;;
15183;SDS011;7693;49.266;7.104;2023-03-01T23:01:24;19.93;;;13.00;;
15183;SDS011;7693;49.266;7.104;2023-03-01T23:03:51;17.00;;;12.77;;
15183;SDS011;7693;49.266;7.104;2023-03-01T23:06:17;18.57;;;13.57;;
15183;SDS011;7693;49.266;7.104;2023-03-01T23:08:47;18.43;;;13.43;;
15183;SDS011;7693;49.266;7.104;2023-03-01T23:11:18;20.83;;;14.43;;
15183;SDS011;7693;49.266;7.104;2023-03-01T23:13:44;19.10;;;14.00;;
15183;SDS011;7693;49.266;7.104;2023-03-01T23:16:13;19.67;;;14.00;;
15183;SDS011;7693;49.266;7.104;2023-03-01T23:18:39;18.07;;;13.20;;
15183;SDS011;7693;49.266;7.104;2023-03-01T23:21:10;21.80;;;14.57;;
